Southeast Iowa Regional Airport
Friday 2:53 AM
Weather Overcast
Temperature 39°
Dew Point 20°
Feels Like 33°
Relative Humidity 46
%
Visibility 10
mi
Pressure 1015.6
mb
Wind Direction SSE
Wind Speed 9
mph
Last Hour Precip 0.00
"
KBRL 020853Z AUTO 16008KT 10SM OVC033 04/M07 A2999 RMK AO2 SLP162 T00391067 56024

Terminal Aerodrome Forecast (TAF)

Beginning Flight Rule Present Weather Sky Cover Ceiling Wind Visibility Wind Shear
12/1/22 11:20 PM
VFR
BKN 3500 3500
ft
SSE (150) 14 >6
sm
(210) 52 @ 1500
0206/0306 15012KT P6SM BKN035 WS015/21045KT
12/2/22 9:00 AM
VFR
SCT 3000 BKN 25000 25000
ft
S (180) 16G25 >6
sm
FM021500 18014G22KT P6SM SCT030 BKN250
12/2/22 12:00 PM
MVFR
BKN 1800 1800
ft
S (190) 18G32 >6
sm
FM021800 19016G28KT P6SM BKN018
12/2/22 7:00 PM
MVFR
BKN 2500 2500
ft
SW (220) 16G24 >6
sm
(230) 52 @ 1500
FM030100 22014G21KT P6SM BKN025 WS015/23045KT
12/2/22 10:00 PM
VFR
BKN 3000 3000
ft
WNW (290) 32G52 >6
sm
FM030400 29028G45KT P6SM BKN030

Recent Observations

Time Present Weather Temp DP Feels RH% Vsby Pressure Ceiling Direction Speed Gust 1h Precip
2:53AM
VFR
39° 20° 33° 46
%
10
mi
1015.6
mb
3300
ft
SSE 9
mph
0.00"
KBRL 020853Z AUTO 16008KT 10SM OVC033 04/M07 A2999 RMK AO2 SLP162 T00391067 56024
1:53AM
VFR
39° 20° 31° 46
%
10
mi
1016.3
mb
4500
ft
S 15
mph
23
mph
0.00"
KBRL 020753Z AUTO 17013G20KT 10SM OVC045 04/M07 A3001 RMK AO2 SLP169 T00391067
12:53AM
VFR
38° 20° 30° 48
%
10
mi
1017.3
mb
3300
ft
S 13
mph
0.00"
KBRL 020653Z AUTO 17011KT 10SM OVC033 03/M07 A3004 RMK AO2 SLP178 T00331067
11:53PM
VFR
38° 20° 30° 48
%
10
mi
1018.3
mb
4600
ft
S 13
mph
0.00"
KBRL 020553Z AUTO 17011KT 10SM OVC046 03/M07 A3007 RMK AO2 SLP188 T00331067 10033 20011 400331100 58015
10:53PM
VFR
35° 20° 29° 53
%
10
mi
1019.0
mb
None SSE 8
mph
0.00"
KBRL 020453Z AUTO 15007KT 10SM CLR 02/M07 A3009 RMK AO2 SLP195 T00171067
9:53PM
VFR
35° 20° 27° 53
%
10
mi
1019.3
mb
None SSE 10
mph
0.00"
KBRL 020353Z AUTO 16009KT 10SM CLR 02/M07 A3010 RMK AO2 SLP200 T00171067
8:53PM
VFR
37° 20° 28° 50
%
10
mi
1019.6
mb
5000
ft
S 14
mph
0.00"
KBRL 020253Z AUTO 17012KT 10SM BKN050 03/M07 A3011 RMK AO2 SLP205 T00281067 58014
7:53PM
VFR
36° 20° 27° 52
%
10
mi
1020.0
mb
6000
ft
S 15
mph
22
mph
0.00"
KBRL 020153Z AUTO 17013G19KT 10SM OVC060 02/M07 A3012 RMK AO2 SLP209 T00221067
6:53PM
VFR
34° 19° 25° 54
%
10
mi
1021.0
mb
None SSE 12
mph
0.00"
KBRL 020053Z AUTO 16010KT 10SM SCT065 01/M07 A3015 RMK AO2 SLP217 T00111072
5:53PM
VFR
34° 18° 25° 52
%
10
mi
1021.0
mb
None SSE 14
mph
0.00"
KBRL 012353Z AUTO 16012KT 10SM SCT070 01/M08 A3015 RMK AO2 SLP220 T00111078 10033 20000 56026
4:53PM
VFR
35° 18° 26° 49
%
10
mi
1021.7
mb
7500
ft
SSE 13
mph
26
mph
0.00"
KBRL 012253Z AUTO 16011G23KT 10SM OVC075 02/M08 A3017 RMK AO2 SLP226 T00171078
3:53PM
VFR
36° 18° 26° 48
%
10
mi
1023.0
mb
8000
ft
SSE 16
mph
25
mph
0.00"
KBRL 012153Z AUTO 16014G22KT 10SM OVC080 02/M08 A3021 RMK AO2 SLP238 T00221078
2:53PM
VFR
38° 17° 28° 42
%
10
mi
1023.7
mb
9000
ft
SSE 17
mph
28
mph
0.00"
KBRL 012053Z AUTO 16015G24KT 10SM FEW070 OVC090 03/M08 A3023 RMK AO2 SLP246 T00331083 58047
1:53PM
VFR
37° 16° 28° 42
%
10
mi
1025.4
mb
None S 14
mph
24
mph
0.00"
KBRL 011953Z AUTO 17012G21KT 10SM SCT085 03/M09 A3028 RMK AO2 SLP264 T00281089
12:53PM
VFR
35° 17° 26° 47
%
10
mi
1026.8
mb
None S 14
mph
0.00"
KBRL 011853Z AUTO 17012KT 10SM CLR 02/M08 A3032 RMK AO2 SLP277 T00171083
11:53AM
VFR
32° 18° 22° 56
%
10
mi
1028.4
mb
🔻
None SSE 14
mph
0.00"
KBRL 011753Z AUTO 16012KT 10SM CLR 00/M08 A3037 RMK AO2 PRESFR SLP294 T00001078 10000 21089 58030
10:53AM
VFR
28° 17° 19° 63
%
10
mi
1030.1
mb
None S 9
mph
0.00"
KBRL 011653Z AUTO 17008KT 10SM CLR M02/M08 A3042 RMK AO2 SLP313 T10221083
9:53AM
VFR
25° 16° 15° 68
%
10
mi
1031.2
mb
None SSE 9
mph
0.00"
KBRL 011553Z AUTO 15008KT 10SM CLR M04/M09 A3045 RMK AO2 SLP322 T10391089
8:53AM
VFR
22° 14° 13° 71
%
10
mi
1031.5
mb
None SSE 7
mph
0.00"
KBRL 011453Z AUTO 15006KT 10SM CLR M06/M10 A3046 RMK AO2 SLP326 T10561100 53001
7:53AM
VFR
19° 12° 11° 74
%
10
mi
1030.8
mb
None SE 6
mph
0.00"
KBRL 011353Z AUTO 13005KT 10SM CLR M07/M11 A3044 RMK AO2 SLP319 T10721111
Click here to show this page without METARs/TAFs included